Terminal Aerodrome Forecast
Issued by NWS

Home | Current Version | Previous Version | Text Only | Print | Product List | Glossary On
Versions: 1 2 3 4 5 6 7 8 9 10 11 12 13 14 15 16 17 18 19 20 21 22 23 24 25 26 27 28 29 30 31
969
FTUS41 KOKX 292128 AAB
TAFTEB
TAF AMD
KTEB 292128Z 2921/3018 07004KT P6SM -SHRA OVC050
     FM300000 VRB04KT P6SM -SHRA OVC050
     FM300200 04005KT P6SM VCSH FEW020 OVC045
     FM300800 VRB03KT P6SM VCSH BKN050
     FM301200 04004KT P6SM FEW060 SCT250
     FM301600 08006KT P6SM FEW060 SCT250=

USA.gov is the U.S. government's official web portal to all federal, state and local government web resources and services.